Newland, North Carolina
Current Conditions -  °F | °C
As of 2:35 AM on Thursday 23 Oct 2014 (Local Time) from KTNB Reporting Station
Clear Clear  
Wind Chill: 32°   Ceiling: Unl
Heat Index: 41°   Visibility: 10mi
Dew Point: 34°   Wind: 16mph
Humidity: 78%   Direction: 300°WNW
Pressure: 30.1"   Gusts: 21mph
Location:  36.09°N, 81.93°W
Report Text: KTNB 230635Z AUTO 30014G18KT 10SM CLR 05/01 A3010 RMK AO2 T00480013
Loading
Personal Weather Stations






























Interactive Weather Map
Tropical Storm Tracking
New forecast layout! Learn more

10-Day Weather Forecast

Advertisements
Track Severe Weather on mobile